createdAt,value
2019-04-16T00:02:06.864Z,70.61
2019-04-16T00:04:56.712Z,70.51
2019-04-16T00:07:47.074Z,70.72
2019-04-16T00:10:36.115Z,71.08
2019-04-16T00:13:24.840Z,71.47
2019-04-16T00:15:55.002Z,71.68
2019-04-16T00:18:25.060Z,71.47
2019-04-16T00:21:31.892Z,71.50
2019-04-16T00:24:20.554Z,71.97
2019-04-16T00:26:57.834Z,72.52
2019-04-16T00:29:26.007Z,73.55
2019-04-16T00:32:21.055Z,74.01
2019-04-16T00:34:50.890Z,74.10
2019-04-16T00:37:21.566Z,74.03
2019-04-16T00:39:55.539Z,74.48
2019-04-16T00:42:23.339Z,74.84
2019-04-16T00:44:53.390Z,74.67
2019-04-16T00:47:23.165Z,74.85
2019-04-16T00:49:57.534Z,76.36
2019-04-16T00:52:24.788Z,77.50
2019-04-16T00:54:54.665Z,78.35
2019-04-16T00:57:24.465Z,78.32
2019-04-16T00:59:56.345Z,78.17
2019-04-16T01:02:25.963Z,78.28
2019-04-16T01:04:55.739Z,77.64
2019-04-16T01:07:25.548Z,77.14
2019-04-16T01:09:56.622Z,76.98
2019-04-16T01:12:26.610Z,76.70
2019-04-16T01:14:59.574Z,76.29
2019-04-16T01:17:27.916Z,75.80
2019-04-16T01:19:57.794Z,75.83
2019-04-16T01:22:27.711Z,75.18
2019-04-16T01:24:57.464Z,74.96
2019-04-16T01:27:52.154Z,74.30
2019-04-16T01:30:36.297Z,74.14
2019-04-16T01:33:14.733Z,73.44
2019-04-16T01:36:02.955Z,73.58
2019-04-16T01:38:44.109Z,73.82
2019-04-16T01:41:15.686Z,75.03
2019-04-16T01:43:45.391Z,75.78
2019-04-16T01:46:15.216Z,75.99
2019-04-16T01:48:45.192Z,75.99
2019-04-16T01:51:16.107Z,76.17
2019-04-16T01:53:46.090Z,76.09
2019-04-16T01:56:15.993Z,76.04
2019-04-16T01:58:45.913Z,76.02
2019-04-16T02:01:15.886Z,75.90
2019-04-16T02:03:48.592Z,75.85
2019-04-16T02:06:17.367Z,75.71
2019-04-16T02:08:47.229Z,75.00
2019-04-16T02:11:18.200Z,74.75
2019-04-16T02:13:47.863Z,74.17
2019-04-16T02:16:17.677Z,73.31
2019-04-16T02:18:47.339Z,73.19
2019-04-16T02:21:17.226Z,71.56
2019-04-16T02:23:48.057Z,70.92
2019-04-16T02:26:20.610Z,71.18
2019-04-16T02:28:50.137Z,70.46
2019-04-16T02:31:19.950Z,70.10
2019-04-16T02:33:49.710Z,69.93
2019-04-16T02:36:19.506Z,69.25
2019-04-16T02:38:53.256Z,69.21
2019-04-16T02:41:23.401Z,69.18
2019-04-16T02:43:52.599Z,68.95
2019-04-16T02:46:22.540Z,68.55
2019-04-16T02:48:52.401Z,68.13
2019-04-16T02:51:45.592Z,67.79
2019-04-16T02:54:20.628Z,67.96
2019-04-16T02:57:15.151Z,68.83
2019-04-16T02:59:47.259Z,69.69
2019-04-16T03:02:34.546Z,69.39
2019-04-16T03:05:26.433Z,68.92
2019-04-16T03:07:55.290Z,68.08
2019-04-16T03:10:24.963Z,68.18
2019-04-16T03:12:55.243Z,68.41
2019-04-16T03:15:42.563Z,68.73
2019-04-16T03:18:15.239Z,69.21
2019-04-16T03:20:44.974Z,69.40
2019-04-16T03:23:14.737Z,69.80
2019-04-16T03:25:45.127Z,70.20
2019-04-16T03:28:15.331Z,70.24
2019-04-16T03:30:45.116Z,70.09
2019-04-16T03:33:16.030Z,69.87
2019-04-16T03:35:46.207Z,69.77
2019-04-16T03:38:15.983Z,70.02
2019-04-16T03:40:45.798Z,69.86
2019-04-16T03:43:16.121Z,69.92
2019-04-16T03:45:45.836Z,70.05
2019-04-16T03:48:15.852Z,70.05
2019-04-16T03:50:45.807Z,70.81
2019-04-16T03:53:17.769Z,71.56
2019-04-16T03:55:47.017Z,71.39
2019-04-16T03:58:16.868Z,71.28
2019-04-16T04:00:46.651Z,71.54
2019-04-16T04:03:16.666Z,71.22
2019-04-16T04:05:55.507Z,71.73
2019-04-16T04:08:25.752Z,72.00
2019-04-16T04:10:56.673Z,72.03
2019-04-16T04:13:27.792Z,72.89
2019-04-16T04:15:58.628Z,74.42
2019-04-16T04:18:29.601Z,75.94
2019-04-16T04:20:59.513Z,76.89
2019-04-16T04:23:29.538Z,78.03
2019-04-16T04:25:59.254Z,77.65
2019-04-16T04:28:29.162Z,77.03
2019-04-16T04:31:00.912Z,77.97
2019-04-16T04:33:42.703Z,78.10
2019-04-16T04:36:12.242Z,77.23
2019-04-16T04:38:42.184Z,77.11
2019-04-16T04:41:12.075Z,76.57
2019-04-16T04:43:42.040Z,75.26
2019-04-16T04:46:14.497Z,74.71
2019-04-16T04:48:43.643Z,74.83
2019-04-16T04:51:13.497Z,75.27
2019-04-16T04:53:43.278Z,74.49
2019-04-16T04:56:13.183Z,75.73
2019-04-16T04:58:43.050Z,75.72
2019-04-16T05:01:14.177Z,73.30
2019-04-16T05:04:21.461Z,70.46
2019-04-16T05:06:54.339Z,70.22
2019-04-16T05:09:23.732Z,70.65
2019-04-16T05:11:54.583Z,69.92
2019-04-16T05:14:26.088Z,69.91
2019-04-16T05:16:55.835Z,70.99
2019-04-16T05:19:25.647Z,70.60
2019-04-16T05:21:55.688Z,70.98
2019-04-16T05:24:28.914Z,70.13
2019-04-16T05:26:57.010Z,71.37
2019-04-16T05:29:26.870Z,70.61
2019-04-16T05:31:57.386Z,69.20
2019-04-16T05:34:28.067Z,69.58
2019-04-16T05:36:57.935Z,68.64
2019-04-16T05:39:29.083Z,68.79
2019-04-16T05:41:58.935Z,69.80
2019-04-16T05:44:33.231Z,70.04
2019-04-16T05:47:00.154Z,69.42
2019-04-16T05:49:30.025Z,69.93
2019-04-16T05:52:02.849Z,71.38
2019-04-16T05:54:44.293Z,72.06
2019-04-16T05:57:16.406Z,71.30
2019-04-16T05:59:46.310Z,69.58
2019-04-16T06:02:21.630Z,63.64
2019-04-16T06:04:55.593Z,58.97
2019-04-16T06:07:22.841Z,60.04
2019-04-16T06:09:52.590Z,58.37
2019-04-16T06:12:24.013Z,57.03
2019-04-16T06:15:04.051Z,54.42
2019-04-16T06:17:51.703Z,53.59
2019-04-16T06:20:38.188Z,53.26
2019-04-16T06:23:31.730Z,51.48
2019-04-16T06:26:26.061Z,49.43
2019-04-16T06:29:13.702Z,49.17
2019-04-16T06:31:57.036Z,47.48
2019-04-16T06:35:03.919Z,46.58
2019-04-16T06:38:04.312Z,47.17
2019-04-16T06:40:54.328Z,58.99
2019-04-16T06:43:29.557Z,62.75
2019-04-16T06:46:18.530Z,61.57
2019-04-16T06:49:09.783Z,47.77
2019-04-16T06:51:45.951Z,53.66
2019-04-16T06:54:34.685Z,58.93
2019-04-16T06:57:26.992Z,58.44
2019-04-16T07:00:33.714Z,56.93
2019-04-16T07:03:20.269Z,55.45
2019-04-16T07:06:08.890Z,54.68
2019-04-16T07:09:03.152Z,53.10
2019-04-16T07:11:33.263Z,51.82
2019-04-16T07:14:02.996Z,50.26
2019-04-16T07:16:32.806Z,50.73
2019-04-16T07:19:02.884Z,49.10
2019-04-16T07:21:32.739Z,42.84
2019-04-16T07:24:02.631Z,41.69
2019-04-16T07:26:32.534Z,41.08
2019-04-16T07:29:08.243Z,41.74
2019-04-16T07:31:56.985Z,42.20
2019-04-16T07:34:51.735Z,40.37
2019-04-16T07:37:52.426Z,39.85
2019-04-16T07:40:43.648Z,38.09
2019-04-16T07:43:34.824Z,40.00
2019-04-16T07:46:22.496Z,36.73
2019-04-16T07:49:10.290Z,36.49
2019-04-16T07:52:13.937Z,35.29
2019-04-16T07:55:17.619Z,37.64
2019-04-16T07:57:47.409Z,38.92
2019-04-16T08:00:17.930Z,39.50
2019-04-16T08:02:50.772Z,39.79
2019-04-16T08:05:19.351Z,38.96
2019-04-16T08:07:49.734Z,38.43
2019-04-16T08:10:20.643Z,36.86
2019-04-16T08:13:00.525Z,35.24
2019-04-16T08:15:29.677Z,34.65
2019-04-16T08:17:59.480Z,35.48
2019-04-16T08:20:29.372Z,36.28
2019-04-16T08:23:03.232Z,35.22
2019-04-16T08:25:34.010Z,35.00
2019-04-16T08:28:07.013Z,36.61
2019-04-16T08:30:39.308Z,36.46
2019-04-16T08:33:10.569Z,37.28
2019-04-16T08:35:38.948Z,37.02
2019-04-16T08:38:08.873Z,36.41
2019-04-16T08:40:38.737Z,36.16
2019-04-16T08:43:08.593Z,34.55
2019-04-16T08:45:39.844Z,34.44
2019-04-16T08:48:09.810Z,33.80
2019-04-16T08:50:39.469Z,33.45
2019-04-16T08:53:13.315Z,32.39
2019-04-16T08:55:40.780Z,32.17
2019-04-16T08:58:12.680Z,33.70
2019-04-16T09:00:46.650Z,32.69
2019-04-16T09:03:15.488Z,32.64
2019-04-16T09:05:45.399Z,33.06
2019-04-16T09:08:43.226Z,32.73
2019-04-16T09:11:23.335Z,33.22
2019-04-16T09:13:51.716Z,33.12
2019-04-16T09:16:21.457Z,32.75
2019-04-16T09:19:11.725Z,32.84
2019-04-16T09:21:44.356Z,32.39
2019-04-16T09:24:32.132Z,32.51
2019-04-16T09:27:29.652Z,32.59
2019-04-16T09:30:17.792Z,32.06
2019-04-16T09:32:51.945Z,32.48
2019-04-16T09:35:30.069Z,32.57
2019-04-16T09:38:21.135Z,32.57
2019-04-16T09:41:08.838Z,32.46
2019-04-16T09:43:42.430Z,32.48
2019-04-16T09:46:21.614Z,31.75
2019-04-16T09:48:44.220Z,32.44
2019-04-16T09:51:18.646Z,32.27
2019-04-16T09:53:45.757Z,33.54
2019-04-16T09:56:31.290Z,32.58
2019-04-16T09:59:40.402Z,32.52
2019-04-16T10:02:16.150Z,32.87
2019-04-16T10:04:46.107Z,35.47
2019-04-16T10:07:15.877Z,34.39
2019-04-16T10:09:45.814Z,35.35
2019-04-16T10:12:15.811Z,34.24
2019-04-16T10:14:45.541Z,34.65
2019-04-16T10:17:16.806Z,34.50
2019-04-16T10:19:46.623Z,34.23
2019-04-16T10:22:16.530Z,33.53
2019-04-16T10:25:05.298Z,34.12
2019-04-16T10:28:01.878Z,33.55
2019-04-16T10:30:47.188Z,33.53
2019-04-16T10:33:17.050Z,33.37
2019-04-16T10:35:46.935Z,33.18
2019-04-16T10:38:35.595Z,33.06
2019-04-16T10:41:09.138Z,33.16
2019-04-16T10:43:56.547Z,33.95
2019-04-16T10:46:43.893Z,34.15
2019-04-16T10:49:47.884Z,33.10
2019-04-16T10:52:35.130Z,33.80
2019-04-16T10:55:29.849Z,34.02
2019-04-16T10:58:16.745Z,33.98
2019-04-16T11:00:58.811Z,33.74
2019-04-16T11:03:46.721Z,33.77
2019-04-16T11:06:35.324Z,33.50
2019-04-16T11:09:06.944Z,34.09
2019-04-16T11:11:37.017Z,33.97
2019-04-16T11:14:06.799Z,34.08
2019-04-16T11:16:38.070Z,34.29
2019-04-16T11:19:08.174Z,34.74
2019-04-16T11:21:38.058Z,34.11
2019-04-16T11:24:08.157Z,33.95
2019-04-16T11:26:38.006Z,34.31
2019-04-16T11:29:07.827Z,34.48
2019-04-16T11:31:38.162Z,34.68
2019-04-16T11:34:09.581Z,34.74
2019-04-16T11:36:39.325Z,34.50
2019-04-16T11:39:10.721Z,34.96
2019-04-16T11:41:40.618Z,35.16
2019-04-16T11:44:15.592Z,34.58
2019-04-16T11:46:43.175Z,34.78
2019-04-16T11:49:13.111Z,34.91
2019-04-16T11:51:43.001Z,35.09
2019-04-16T11:54:15.120Z,35.59
2019-04-16T11:56:45.920Z,35.84
2019-04-16T11:59:15.841Z,34.90
2019-04-16T12:01:56.943Z,34.51
2019-04-16T12:04:38.031Z,34.31
2019-04-16T12:07:26.972Z,34.35
2019-04-16T12:10:16.521Z,34.65
2019-04-16T12:13:09.607Z,35.02
2019-04-16T12:15:45.262Z,35.35
2019-04-16T12:18:31.951Z,34.72
2019-04-16T12:21:09.686Z,33.84
2019-04-16T12:24:11.806Z,34.68
2019-04-16T12:27:07.170Z,35.37
2019-04-16T12:29:55.890Z,35.79
2019-04-16T12:32:34.082Z,35.00
2019-04-16T12:35:21.130Z,35.57
2019-04-16T12:38:25.058Z,36.53
2019-04-16T12:41:27.464Z,35.78
2019-04-16T12:44:14.551Z,34.42
2019-04-16T12:47:01.699Z,32.92
2019-04-16T12:49:46.588Z,29.59
2019-04-16T12:52:25.662Z,28.91
2019-04-16T12:55:23.781Z,28.50
2019-04-16T12:58:10.008Z,27.00
2019-04-16T13:00:59.815Z,25.21
2019-04-16T13:03:58.073Z,24.94
2019-04-16T13:06:49.402Z,25.87
2019-04-16T13:09:38.237Z,25.31
2019-04-16T13:12:44.970Z,25.82
2019-04-16T13:15:29.190Z,25.46
2019-04-16T13:18:17.995Z,25.20
2019-04-16T13:21:06.125Z,26.15
2019-04-16T13:23:56.030Z,26.14
2019-04-16T13:26:31.313Z,27.30
2019-04-16T13:29:03.231Z,26.08
2019-04-16T13:31:33.034Z,25.78
2019-04-16T13:34:03.077Z,26.75
2019-04-16T13:36:32.849Z,25.10
2019-04-16T13:39:09.522Z,25.42
2019-04-16T13:41:40.320Z,24.44
2019-04-16T13:44:10.692Z,25.13
2019-04-16T13:46:40.308Z,24.92
2019-04-16T13:49:24.379Z,26.44
2019-04-16T13:51:52.968Z,26.15
2019-04-16T13:54:40.834Z,25.28
2019-04-16T13:57:14.211Z,27.48
2019-04-16T14:00:04.841Z,26.82
2019-04-16T14:02:52.005Z,27.66
2019-04-16T14:05:22.986Z,30.16
2019-04-16T14:07:52.770Z,31.86
2019-04-16T14:10:22.889Z,32.76
2019-04-16T14:12:52.803Z,34.92
2019-04-16T14:15:32.266Z,36.91
2019-04-16T14:17:59.691Z,37.28
2019-04-16T14:20:30.257Z,37.21
2019-04-16T14:23:00.134Z,37.27
2019-04-16T14:25:30.050Z,37.53
2019-04-16T14:28:03.202Z,35.98
2019-04-16T14:30:35.460Z,33.99
2019-04-16T14:33:07.372Z,34.05
2019-04-16T14:35:40.316Z,34.82
2019-04-16T14:38:10.245Z,36.86
2019-04-16T14:40:42.323Z,39.46
2019-04-16T14:43:14.769Z,41.42
2019-04-16T14:45:58.368Z,42.39
2019-04-16T14:48:21.646Z,42.63
2019-04-16T14:50:51.426Z,42.81
2019-04-16T14:53:36.752Z,43.31
2019-04-16T14:56:12.669Z,42.89
2019-04-16T14:59:07.828Z,42.24
2019-04-16T15:01:57.023Z,40.90
2019-04-16T15:04:33.856Z,40.76
2019-04-16T15:07:20.973Z,39.62
2019-04-16T15:09:56.719Z,37.21
2019-04-16T15:12:45.310Z,37.24
2019-04-16T15:15:41.108Z,38.57
2019-04-16T15:18:30.905Z,37.65
2019-04-16T15:21:17.980Z,39.06
2019-04-16T15:24:25.196Z,38.87
2019-04-16T15:27:12.334Z,37.68
2019-04-16T15:30:07.077Z,37.49
2019-04-16T15:33:09.185Z,35.92
2019-04-16T15:35:46.695Z,36.53
2019-04-16T15:38:39.020Z,35.18
2019-04-16T15:41:44.606Z,36.60
2019-04-16T15:44:24.423Z,36.84
2019-04-16T15:47:13.940Z,37.01
2019-04-16T15:49:55.680Z,37.40
2019-04-16T15:52:46.533Z,37.89
2019-04-16T15:55:29.440Z,39.58
2019-04-16T15:58:25.110Z,41.67
2019-04-16T16:01:00.624Z,44.35
2019-04-16T16:04:07.155Z,47.73
2019-04-16T16:06:43.171Z,50.42
2019-04-16T16:09:17.999Z,51.91
2019-04-16T16:11:55.768Z,53.79
2019-04-16T16:14:33.157Z,55.91
2019-04-16T16:16:59.897Z,58.85
2019-04-16T16:19:29.718Z,59.03
2019-04-16T16:21:59.454Z,61.07
2019-04-16T16:24:29.331Z,60.29
2019-04-16T16:26:59.245Z,58.99
2019-04-16T16:29:29.205Z,58.09
2019-04-16T16:31:59.081Z,58.48
2019-04-16T16:34:29.098Z,60.13
2019-04-16T16:36:58.962Z,61.84
2019-04-16T16:39:28.780Z,64.26
2019-04-16T16:41:58.689Z,65.23
2019-04-16T16:44:28.429Z,65.57
2019-04-16T16:47:23.133Z,65.40
2019-04-16T16:49:52.915Z,64.83
2019-04-16T16:52:31.418Z,66.02
2019-04-16T16:55:03.566Z,67.80
2019-04-16T16:57:41.752Z,69.31
2019-04-16T17:00:28.570Z,69.40
2019-04-16T17:03:14.895Z,69.18
2019-04-16T17:05:46.175Z,70.92
2019-04-16T17:08:15.945Z,72.10
2019-04-16T17:10:45.780Z,72.28
2019-04-16T17:13:18.900Z,72.86
2019-04-16T17:15:46.948Z,73.37
2019-04-16T17:18:16.726Z,74.50
2019-04-16T17:20:50.072Z,76.18
2019-04-16T17:23:18.056Z,76.45
2019-04-16T17:25:48.023Z,76.68
2019-04-16T17:28:18.070Z,76.86
2019-04-16T17:30:48.077Z,76.86
2019-04-16T17:33:18.065Z,77.33
2019-04-16T17:35:47.811Z,76.87
2019-04-16T17:38:17.673Z,76.72
2019-04-16T17:40:59.015Z,76.79
2019-04-16T17:43:33.997Z,78.59
2019-04-16T17:46:24.780Z,79.48
2019-04-16T17:49:11.771Z,79.80
2019-04-16T17:52:00.231Z,81.40
2019-04-16T17:54:38.031Z,82.01
2019-04-16T17:57:28.962Z,82.47
2019-04-16T18:00:15.948Z,83.04
2019-04-16T18:03:10.595Z,83.64
2019-04-16T18:05:48.627Z,83.92
2019-04-16T18:08:35.652Z,84.19
2019-04-16T18:11:18.758Z,85.15
2019-04-16T18:13:53.404Z,86.17
2019-04-16T18:16:45.787Z,86.11
2019-04-16T18:19:24.866Z,86.89
2019-04-16T18:22:11.627Z,87.82
2019-04-16T18:24:53.627Z,88.59
2019-04-16T18:27:45.155Z,89.90
2019-04-16T18:30:32.358Z,90.58
2019-04-16T18:33:40.410Z,90.78
2019-04-16T18:36:31.890Z,91.94
2019-04-16T18:39:19.111Z,92.16
2019-04-16T18:41:59.002Z,91.45
2019-04-16T18:44:51.286Z,91.32
2019-04-16T18:47:38.672Z,90.72
2019-04-16T18:50:22.379Z,91.42
2019-04-16T18:52:49.554Z,91.63
2019-04-16T18:55:19.431Z,91.81
2019-04-16T18:57:49.347Z,92.25
2019-04-16T19:00:37.715Z,92.33
2019-04-16T19:03:07.695Z,92.64
2019-04-16T19:05:37.530Z,92.59
2019-04-16T19:08:07.657Z,92.34
2019-04-16T19:10:38.823Z,92.89
2019-04-16T19:13:11.214Z,92.97
2019-04-16T19:15:41.320Z,93.06
2019-04-16T19:18:19.587Z,93.40
2019-04-16T19:20:43.170Z,94.02
2019-04-16T19:23:13.037Z,94.25
2019-04-16T19:25:42.870Z,94.42
2019-04-16T19:28:12.882Z,95.08
2019-04-16T19:30:42.689Z,95.37
2019-04-16T19:33:12.551Z,95.68
2019-04-16T19:35:42.477Z,95.09
2019-04-16T19:38:12.362Z,94.40
2019-04-16T19:40:42.176Z,94.23
2019-04-16T19:43:12.083Z,94.30
2019-04-16T19:45:43.756Z,94.07
2019-04-16T19:48:13.406Z,94.64
2019-04-16T19:50:44.547Z,94.27
2019-04-16T19:53:15.135Z,94.70
2019-04-16T19:55:45.953Z,94.91
2019-04-16T19:58:16.370Z,94.87
2019-04-16T20:00:46.277Z,94.76
2019-04-16T20:03:15.957Z,94.34
2019-04-16T20:05:47.157Z,94.35
2019-04-16T20:08:16.833Z,95.03
2019-04-16T20:10:48.673Z,95.43
2019-04-16T20:13:17.973Z,95.29
2019-04-16T20:15:47.803Z,94.49
2019-04-16T20:18:20.454Z,94.04
2019-04-16T20:20:50.887Z,93.44
2019-04-16T20:23:20.713Z,93.93
2019-04-16T20:25:51.683Z,94.67
2019-04-16T20:28:21.480Z,94.06
2019-04-16T20:30:57.380Z,94.46
2019-04-16T20:33:23.167Z,94.44
2019-04-16T20:35:53.282Z,93.91
2019-04-16T20:38:23.089Z,93.71
2019-04-16T20:40:52.689Z,93.63
2019-04-16T20:43:22.554Z,93.57
2019-04-16T20:45:52.446Z,92.76
2019-04-16T20:48:22.447Z,92.49
2019-04-16T20:50:53.148Z,92.37
2019-04-16T20:53:23.896Z,92.36
2019-04-16T20:55:53.829Z,92.54
2019-04-16T20:58:23.776Z,92.99
2019-04-16T21:00:54.721Z,92.92
2019-04-16T21:03:24.817Z,92.82
2019-04-16T21:05:58.907Z,93.56
2019-04-16T21:08:27.322Z,93.76
2019-04-16T21:10:59.440Z,93.53
2019-04-16T21:13:28.898Z,93.34
2019-04-16T21:16:01.765Z,93.01
2019-04-16T21:18:30.194Z,92.81
2019-04-16T21:20:59.972Z,92.45
2019-04-16T21:23:31.942Z,91.32
2019-04-16T21:26:01.745Z,91.52
2019-04-16T21:28:39.135Z,91.60
2019-04-16T21:31:19.302Z,91.95
2019-04-16T21:34:00.964Z,92.50
2019-04-16T21:36:40.753Z,92.21
2019-04-16T21:39:17.193Z,92.04
2019-04-16T21:41:44.503Z,91.60
2019-04-16T21:44:14.379Z,91.68
2019-04-16T21:46:44.299Z,91.26
2019-04-16T21:49:14.390Z,91.85
2019-04-16T21:52:18.243Z,91.23
2019-04-16T21:54:48.226Z,91.25
2019-04-16T21:57:18.006Z,91.17
2019-04-16T21:59:50.263Z,90.91
2019-04-16T22:02:22.436Z,90.08
2019-04-16T22:04:52.064Z,90.58
2019-04-16T22:07:24.685Z,90.92
2019-04-16T22:09:53.619Z,91.44
2019-04-16T22:12:23.409Z,91.57
2019-04-16T22:14:54.234Z,90.76
2019-04-16T22:17:25.222Z,91.04
2019-04-16T22:20:01.458Z,91.92
2019-04-16T22:22:27.873Z,95.18
2019-04-16T22:24:57.932Z,95.45
2019-04-16T22:27:27.949Z,95.25
2019-04-16T22:29:58.026Z,95.48
2019-04-16T22:32:30.970Z,95.02
2019-04-16T22:35:00.543Z,94.24
2019-04-16T22:37:30.379Z,93.81
2019-04-16T22:40:22.515Z,93.89
2019-04-16T22:43:20.488Z,94.85
2019-04-16T22:46:14.971Z,95.59
2019-04-16T22:49:01.272Z,93.92
2019-04-16T22:51:31.108Z,91.07
2019-04-16T22:54:00.990Z,89.32
2019-04-16T22:56:44.565Z,88.78
2019-04-16T22:59:14.470Z,88.53
2019-04-16T23:01:45.704Z,87.91
2019-04-16T23:04:15.556Z,88.28
2019-04-16T23:06:45.333Z,88.02
2019-04-16T23:09:17.191Z,87.81
2019-04-16T23:11:46.751Z,88.66
2019-04-16T23:14:16.523Z,89.43
2019-04-16T23:16:46.447Z,89.93
2019-04-16T23:19:17.466Z,91.41
2019-04-16T23:21:47.802Z,92.24
2019-04-16T23:24:20.503Z,92.46
2019-04-16T23:26:49.212Z,92.05
2019-04-16T23:29:19.093Z,93.12
2019-04-16T23:31:49.108Z,92.42
2019-04-16T23:34:19.408Z,91.95
2019-04-16T23:36:49.488Z,91.52
2019-04-16T23:39:19.448Z,91.04
2019-04-16T23:41:49.321Z,90.05
2019-04-16T23:44:50.138Z,89.37
2019-04-16T23:47:42.871Z,89.26
2019-04-16T23:50:45.541Z,90.11
2019-04-16T23:53:33.422Z,89.15
2019-04-16T23:56:17.888Z,87.78
2019-04-16T23:59:06.554Z,87.59
